This is the latest recevied weather packets stored in our database for station/object KF0FSA. If no packets are shown the sender has not sent any weather packets the latest 10 day(s).
| Time | Temp. | Humidity | Pressure | Rain* | Wind** | Luminosity | Snow |
|---|---|---|---|---|---|---|---|
| 1777396458 | 9.44° C | 55% | 964.7 hPa | 0 mm | - | 271 W/m² | - |
| 1777396154 | 9.44° C | 55% | 964.7 hPa | 0 mm | - | 293 W/m² | - |
| 1777395852 | 9.44° C | 55% | 964.7 hPa | 0 mm | - | 310 W/m² | - |
| 1777395551 | 8.89° C | 54% | 964.7 hPa | 0 mm | - | 303 W/m² | - |
| 1777395252 | 8.89° C | 55% | 964.8 hPa | 0 mm | - | 272 W/m² | - |
| 1777394952 | 8.89° C | 55% | 964.7 hPa | 0 mm | - | 324 W/m² | - |
| 1777394652 | 8.89° C | 57% | 964.7 hPa | 0 mm | - | 353 W/m² | - |
| 1777394351 | 8.89° C | 56% | 964.8 hPa | 0 mm | - | 378 W/m² | - |
| 1777394051 | 8.89° C | 54% | 964.8 hPa | 0 mm | - | 365 W/m² | - |
| 1777393752 | 8.89° C | 55% | 964.8 hPa | 0 mm | - | 356 W/m² | - |
| 1777393453 | 8.89° C | 57% | 964.8 hPa | 0 mm | - | 353 W/m² | - |
| 1777393152 | 8.89° C | 57% | 964.8 hPa | 0 mm | - | 322 W/m² | - |
| 1777392852 | 8.89° C | 56% | 964.7 hPa | 0 mm | - | 387 W/m² | - |
| 1777392553 | 8.89° C | 60% | 964.7 hPa | 0 mm | - | 396 W/m² | - |
| 1777392252 | 8.89° C | 58% | 964.7 hPa | 0 mm | - | 449 W/m² | - |
| 1777391949 | 8.33° C | 59% | 964.3 hPa | 0 mm | - | 725 W/m² | - |
| 1777391773 | 8.33° C | 62% | 964.5 hPa | 0 mm | - | 464 W/m² | - |
| 1777391350 | 7.78° C | 61% | 964.6 hPa | 0 mm | - | 353 W/m² | - |
| 1777391049 | 7.78° C | 62% | 964.7 hPa | 0 mm | - | 266 W/m² | - |
| 1777390750 | 8.33° C | 64% | 964.7 hPa | 0 mm | - | 220 W/m² | - |
| 1777390573 | 7.78° C | 66% | 964.7 hPa | 0 mm | - | 307 W/m² | - |
| 1777390149 | 7.78° C | 67% | 964.7 hPa | 0 mm | - | 452 W/m² | - |
| 1777389974 | 7.78° C | 68% | 964.7 hPa | 0 mm | - | 382 W/m² | - |
| 1777389549 | 7.78° C | 66% | 964.8 hPa | 0 mm | - | 304 W/m² | - |
| 1777389250 | 7.22° C | 67% | 964.8 hPa | 0 mm | - | 420 W/m² | - |
* Rain latest hour (hover to see other rain measurements)
** Current wind speed in m/s (hover to see current wind gust speed)